Time;durP1;ratioP1;P1;durP2;ratioP2;P2;SDS_P1;SDS_P2;PMS_P1;PMS_P2;Temp;Humidity;BMP_temperature;BMP_pressure;BME280_temperature;BME280_humidity;BME280_pressure;Samples;Min_cycle;Max_cycle;Signal;HPM_P1;HPM_P2
2022/02/25 00:00:46;;;;;;;9.90;6.57;;;;;;;2.84;72.80;95252.84;5053836;28;20462;-87
2022/02/25 00:03:14;;;;;;;10.30;5.73;;;;;;;2.71;72.64;95252.63;5054351;28;20456;-86
2022/02/25 00:05:43;;;;;;;9.23;6.43;;;;;;;2.65;72.68;95252.94;5054338;28;20579;-86
2022/02/25 00:08:11;;;;;;;10.70;6.40;;;;;;;2.57;72.53;95242.06;5054026;28;20456;-86
2022/02/25 00:10:38;;;;;;;7.70;5.77;;;;;;;2.44;73.45;95245.25;5053847;28;20712;-87
2022/02/25 00:13:05;;;;;;;8.13;6.03;;;;;;;2.35;73.61;95245.72;5053545;28;20457;-86
2022/02/25 00:15:32;;;;;;;10.73;5.87;;;;;;;2.31;73.64;95244.16;5054242;28;20468;-85
2022/02/25 00:17:59;;;;;;;12.60;7.70;;;;;;;2.30;73.26;95232.09;5053874;28;20465;-88
2022/02/25 00:20:27;;;;;;;15.80;8.10;;;;;;;2.32;73.33;95239.84;5053634;28;20461;-86
2022/02/25 00:22:54;;;;;;;12.43;7.32;;;;;;;2.31;73.33;95227.78;5053548;28;21026;-87
2022/02/25 00:25:22;;;;;;;13.13;7.00;;;;;;;2.24;73.84;95232.41;5053347;28;20206;-87
2022/02/25 00:27:49;;;;;;;9.97;6.27;;;;;;;2.20;74.41;95220.53;5053465;28;20957;-87
2022/02/25 00:30:16;;;;;;;8.75;6.40;;;;;;;2.19;73.85;95224.03;5053246;28;20441;-87
2022/02/25 00:32:43;;;;;;;10.70;6.90;;;;;;;2.20;74.31;95224.84;5053439;28;20212;-87
2022/02/25 00:35:11;;;;;;;9.83;5.00;;;;;;;2.16;74.51;95219.00;5053748;28;20469;-87
2022/02/25 00:37:38;;;;;;;8.23;4.87;;;;;;;2.19;74.88;95216.25;5056552;28;20884;-86
2022/02/25 00:40:06;;;;;;;8.73;6.00;;;;;;;2.20;74.41;95215.34;5056085;28;20452;-86
2022/02/25 00:42:35;;;;;;;6.03;5.47;;;;;;;2.20;73.94;95212.75;5055697;28;20458;-87
2022/02/25 00:45:02;;;;;;;16.63;10.93;;;;;;;2.15;74.17;95205.22;5053320;28;20448;-86
2022/02/25 00:47:29;;;;;;;7.73;5.80;;;;;;;2.21;74.21;95200.66;5053157;28;20484;-87
2022/02/25 00:49:56;;;;;;;6.23;5.20;;;;;;;2.24;74.23;95210.84;5053422;28;20467;-87
2022/02/25 00:52:23;;;;;;;111.37;40.60;;;;;;;1.84;74.37;95205.78;5053553;28;20537;-87
2022/02/25 00:54:50;;;;;;;14.50;10.10;;;;;;;1.89;75.18;95205.56;5053251;28;20542;-87
2022/02/25 00:57:17;;;;;;;40.35;20.88;;;;;;;1.73;75.71;95222.69;5053231;28;20194;-87
2022/02/25 00:59:46;;;;;;;58.83;27.50;;;;;;;1.54;76.41;95215.78;5053515;28;20209;-87
2022/02/25 01:02:13;;;;;;;22.37;12.63;;;;;;;1.48;77.20;95210.03;5053379;28;20208;-88
2022/02/25 01:04:40;;;;;;;30.98;14.95;;;;;;;1.43;77.30;95211.97;5053442;28;20817;-87
2022/02/25 01:07:07;;;;;;;20.27;12.38;;;;;;;1.42;77.70;95205.13;5053501;28;20225;-87
2022/02/25 01:09:34;;;;;;;21.30;13.73;;;;;;;1.41;78.14;95195.69;5053305;28;20203;-87
2022/02/25 01:12:01;;;;;;;22.70;13.25;;;;;;;1.52;78.26;95196.06;5053412;28;20228;-86
2022/02/25 01:14:28;;;;;;;26.42;16.73;;;;;;;1.52;78.85;95199.50;5053474;28;20202;-88
2022/02/25 01:16:56;;;;;;;26.50;16.75;;;;;;;1.67;78.27;95197.09;5053437;28;20219;-88
2022/02/25 01:19:23;;;;;;;22.13;15.30;;;;;;;1.74;78.70;95196.78;5053170;28;20211;-87
2022/02/25 01:21:50;;;;;;;26.40;18.05;;;;;;;1.81;77.43;95185.25;5053496;28;20213;-87
2022/02/25 01:24:17;;;;;;;25.98;17.90;;;;;;;1.92;77.29;95189.06;5053270;28;20297;-87
2022/02/25 01:26:44;;;;;;;28.80;16.63;;;;;;;1.96;76.53;95190.59;5052899;28;20236;-88
2022/02/25 01:29:11;;;;;;;19.95;14.65;;;;;;;1.96;76.66;95185.44;5053314;28;20219;-87
2022/02/25 01:31:39;;;;;;;22.65;14.18;;;;;;;1.98;76.58;95183.59;5053414;28;20214;-88
2022/02/25 01:34:07;;;;;;;21.58;12.93;;;;;;;1.98;77.11;95183.59;5053108;28;20307;-88
2022/02/25 01:36:34;;;;;;;21.17;14.20;;;;;;;2.05;76.59;95174.66;5053187;28;20212;-88
2022/02/25 01:39:02;;;;;;;16.20;12.40;;;;;;;2.12;76.40;95182.06;5053760;28;20209;-87
2022/02/25 01:41:31;;;;;;;18.42;12.05;;;;;;;2.09;76.24;95171.03;5053266;28;20232;-88
2022/02/25 01:44:15;;;;;;;17.83;12.38;;;;;;;2.10;75.52;95170.09;5053951;28;20202;-88
2022/02/25 01:46:45;;;;;;;21.42;13.43;;;;;;;2.09;74.90;95166.69;5057005;28;20239;-87
2022/02/25 01:49:13;;;;;;;21.43;12.73;;;;;;;2.12;74.87;95160.50;5056642;28;20207;-88
2022/02/25 01:51:41;;;;;;;15.43;11.17;;;;;;;2.17;74.73;95154.19;5056745;28;20459;-88
2022/02/25 01:54:08;;;;;;;21.47;12.60;;;;;;;2.14;74.20;95156.94;5057256;28;20448;-88
2022/02/25 01:56:35;;;;;;;15.45;11.48;;;;;;;2.12;74.73;95148.41;5057011;28;20459;-88
2022/02/25 01:59:02;;;;;;;18.50;12.23;;;;;;;2.13;74.56;95154.44;5057041;28;20216;-87
2022/02/25 02:01:29;;;;;;;19.10;11.43;;;;;;;2.14;74.75;95153.50;5056709;28;20213;-89
2022/02/25 02:03:56;;;;;;;26.55;14.55;;;;;;;2.15;74.66;95157.78;5056915;28;20464;-87
2022/02/25 02:06:25;;;;;;;24.83;14.15;;;;;;;2.12;74.89;95155.34;5056844;28;20522;-88
2022/02/25 02:08:52;;;;;;;23.47;14.33;;;;;;;2.05;74.59;95149.63;5056781;28;20670;-88
2022/02/25 02:11:30;;;;;;;23.52;14.57;;;;;;;2.03;75.67;95150.59;5056349;28;21111;-88
2022/02/25 02:13:57;;;;;;;34.40;19.63;;;;;;;1.97;75.77;95143.94;5056446;28;20199;-87
2022/02/25 02:16:25;;;;;;;30.63;17.92;;;;;;;1.96;76.02;95144.03;5056486;28;20207;-87
2022/02/25 02:18:52;;;;;;;32.80;15.68;;;;;;;1.95;75.92;95142.34;5056243;28;20198;-85
2022/02/25 02:21:23;;;;;;;24.75;16.30;;;;;;;1.85;76.12;95131.59;5056369;28;20195;-87
2022/02/25 02:23:51;;;;;;;25.92;16.23;;;;;;;1.80;75.76;95146.50;5056497;28;20728;-88
2022/02/25 02:26:18;;;;;;;27.35;16.55;;;;;;;1.66;76.22;95141.97;5056492;28;20312;-88
2022/02/25 02:28:45;;;;;;;30.13;18.42;;;;;;;1.63;76.10;95134.34;5056111;28;20592;-88
2022/02/25 02:31:12;;;;;;;30.98;18.55;;;;;;;1.63;76.05;95141.25;5056574;28;20209;-88
2022/02/25 02:33:40;;;;;;;25.00;17.52;;;;;;;1.61;75.74;95138.75;5056192;28;20205;-87
2022/02/25 02:36:08;;;;;;;29.50;19.20;;;;;;;1.61;76.54;95146.50;5056230;28;20208;-87
2022/02/25 02:38:35;;;;;;;36.42;20.08;;;;;;;1.58;76.12;95131.13;5056057;28;20211;-87
2022/02/25 02:41:04;;;;;;;26.15;19.08;;;;;;;1.51;75.96;95138.34;5055872;28;20681;-87
2022/02/25 02:43:31;;;;;;;28.38;17.42;;;;;;;1.54;76.93;95137.34;5055893;28;20286;-87
2022/02/25 02:45:58;;;;;;;26.85;18.05;;;;;;;1.55;76.98;95136.44;5056123;28;20200;-88
2022/02/25 02:48:25;;;;;;;24.33;16.05;;;;;;;1.62;77.07;95135.25;5056090;28;20200;-88
2022/02/25 02:50:52;;;;;;;25.15;15.82;;;;;;;1.68;76.74;95134.97;5056014;28;20212;-87
2022/02/25 02:53:19;;;;;;;26.45;17.05;;;;;;;1.69;76.94;95123.72;5057181;28;20212;-87
2022/02/25 02:55:47;;;;;;;22.73;14.30;;;;;;;1.70;76.21;95130.56;5056175;28;20216;-88
2022/02/25 02:58:16;;;;;;;23.02;13.50;;;;;;;1.70;76.18;95129.72;5056560;28;20454;-86
2022/02/25 03:00:45;;;;;;;22.05;15.13;;;;;;;1.67;75.73;95137.63;5055966;28;20209;-87
2022/02/25 03:03:12;;;;;;;27.02;18.25;;;;;;;1.56;75.56;95125.19;5056345;28;20200;-87
2022/02/25 03:05:40;;;;;;;30.08;22.02;;;;;;;1.44;76.33;95130.91;5056437;28;20207;-88
2022/02/25 03:08:07;;;;;;;34.83;18.75;;;;;;;1.39;76.62;95127.69;5056445;28;20228;-87
2022/02/25 03:10:35;;;;;;;36.80;19.10;;;;;;;1.37;76.63;95124.34;5056627;28;20257;-86
2022/02/25 03:13:03;;;;;;;32.55;21.02;;;;;;;1.34;76.41;95115.00;5056577;28;20193;-89
2022/02/25 03:15:32;;;;;;;37.05;23.08;;;;;;;1.33;76.59;95127.97;5057732;28;20672;-87
2022/02/25 03:17:59;;;;;;;34.45;19.90;;;;;;;1.28;76.64;95119.59;5056639;28;20269;-88
2022/02/25 03:23:48;;;;;;;40.10;22.67;;;;;;;1.43;77.13;95124.06;5055512;28;20195;-88
2022/02/25 03:26:14;;;;;;;32.15;19.80;;;;;;;1.44;77.30;95123.16;5056493;28;20217;-87
2022/02/25 03:28:42;;;;;;;34.60;21.67;;;;;;;1.45;76.70;95119.69;5056525;28;20206;-87
2022/02/25 03:31:10;;;;;;;33.55;18.88;;;;;;;1.49;76.76;95128.97;5056705;28;20212;-86
2022/02/25 03:33:37;;;;;;;36.00;23.30;;;;;;;1.46;80.42;95129.97;5056343;28;20548;-86
2022/02/25 03:36:04;;;;;;;23.73;17.73;;;;;;;1.41;78.73;95125.88;5056698;28;20628;-86
2022/02/25 03:38:31;;;;;;;23.85;16.33;;;;;;;1.39;77.72;95122.53;5057079;28;20206;-87
2022/02/25 03:40:58;;;;;;;19.10;12.85;;;;;;;1.40;77.02;95129.38;5056653;28;20221;-87
2022/02/25 03:43:25;;;;;;;18.35;12.00;;;;;;;1.44;76.31;95136.91;5056704;28;20217;-85
2022/02/25 03:45:52;;;;;;;12.18;9.30;;;;;;;1.45;75.53;95132.63;5056360;28;20245;-87
2022/02/25 03:48:21;;;;;;;16.02;10.10;;;;;;;1.42;75.25;95137.91;5056424;28;20219;-87
2022/02/25 03:50:48;;;;;;;10.70;8.35;;;;;;;1.36;75.30;95138.19;5056377;28;20202;-88
2022/02/25 03:53:15;;;;;;;8.23;7.35;;;;;;;1.32;75.91;95149.56;5056275;28;20215;-88
2022/02/25 03:55:42;;;;;;;10.07;7.78;;;;;;;1.25;75.68;95125.75;5056681;28;20210;-88
2022/02/25 03:58:09;;;;;;;8.00;6.32;;;;;;;1.30;75.94;95149.63;5055872;28;20197;-88
2022/02/25 04:00:37;;;;;;;9.10;6.75;;;;;;;1.30;75.67;95143.63;5056036;28;20211;-89
2022/02/25 04:03:04;;;;;;;10.73;7.43;;;;;;;1.31;75.35;95145.31;5056348;28;20263;-88
2022/02/25 04:05:32;;;;;;;9.13;7.18;;;;;;;1.29;75.12;95141.97;5056179;28;20210;-88
2022/02/25 04:07:59;;;;;;;9.00;7.22;;;;;;;1.24;75.32;95139.59;5055064;28;20229;-88
2022/02/25 04:10:27;;;;;;;8.95;7.70;;;;;;;1.26;75.35;95152.44;5055952;28;20237;-88
2022/02/25 04:12:54;;;;;;;67.03;38.28;;;;;;;1.28;75.34;95148.88;5055491;28;20199;-88
2022/02/25 04:15:21;;;;;;;29.92;17.90;;;;;;;1.34;75.43;95155.50;5056259;28;20214;-88
2022/02/25 04:17:48;;;;;;;12.35;8.98;;;;;;;1.35;75.45;95160.63;5055793;28;20234;-88
2022/02/25 04:20:16;;;;;;;7.20;5.85;;;;;;;1.37;74.93;95161.38;5057058;28;20205;-88
2022/02/25 04:22:44;;;;;;;10.50;6.70;;;;;;;1.37;74.94;95158.78;5064945;28;20698;-87
2022/02/25 04:25:11;;;;;;;11.85;6.63;;;;;;;1.35;74.81;95168.38;5068731;28;20216;-87
2022/02/25 04:27:39;;;;;;;11.82;6.60;;;;;;;1.35;75.17;95167.53;5069983;28;20553;-86
2022/02/25 04:30:07;;;;;;;11.25;6.65;;;;;;;1.30;75.55;95166.91;5067812;28;20212;-87
2022/02/25 04:32:35;;;;;;;7.45;5.72;;;;;;;1.27;75.60;95154.13;5070033;28;20220;-88
2022/02/25 04:35:02;;;;;;;8.27;4.97;;;;;;;1.23;75.37;95153.41;5068065;28;20662;-87
2022/02/25 04:37:29;;;;;;;7.90;5.35;;;;;;;1.23;75.12;95149.09;5068005;28;20274;-88
2022/02/25 04:39:58;;;;;;;5.72;5.13;;;;;;;1.18;75.02;95145.88;5067219;28;20261;-87
2022/02/25 04:42:27;;;;;;;8.45;6.00;;;;;;;1.08;75.28;95143.75;5068286;28;20393;-87
2022/02/25 04:44:54;;;;;;;19.63;11.80;;;;;;;1.08;75.22;95146.31;5069029;28;20304;-88
2022/02/25 04:47:21;;;;;;;29.98;15.02;;;;;;;0.94;75.54;95134.03;5068252;28;20230;-88
2022/02/25 04:49:48;;;;;;;20.40;12.77;;;;;;;0.89;76.08;95135.97;5068817;28;20206;-86
2022/02/25 04:52:17;;;;;;;14.30;8.20;;;;;;;0.81;75.98;95135.44;5066578;28;20286;-87
2022/02/25 04:54:45;;;;;;;13.73;6.15;;;;;;;0.86;77.17;95139.50;5066180;28;20277;-87
2022/02/25 04:57:14;;;;;;;6.88;6.15;;;;;;;0.90;76.86;95140.22;5065650;28;20200;-88
2022/02/25 04:59:41;;;;;;;6.22;5.65;;;;;;;0.90;77.06;95135.91;5057085;28;20204;-89
2022/02/25 05:02:08;;;;;;;10.90;6.45;;;;;;;0.93;76.45;95138.34;5056566;28;20206;-88
2022/02/25 05:04:35;;;;;;;21.40;12.00;;;;;;;0.91;76.26;95137.56;5056952;28;20563;-87
2022/02/25 05:07:03;;;;;;;20.00;13.10;;;;;;;0.95;77.02;95132.28;5056370;28;20223;-87
2022/02/25 05:09:30;;;;;;;15.77;12.30;;;;;;;0.97;76.85;95130.47;5056631;28;20231;-88
2022/02/25 05:11:57;;;;;;;18.27;10.85;;;;;;;1.02;76.95;95129.34;5057066;28;20242;-88
2022/02/25 05:22:39;;;;;;;11.77;8.00;;;;;;;1.29;76.13;95116.09;5059711;28;20700;-89
2022/02/25 05:25:07;;;;;;;11.45;6.90;;;;;;;1.38;75.61;95131.19;5059878;28;20230;-87
2022/02/25 05:27:34;;;;;;;11.80;8.48;;;;;;;1.45;75.36;95123.13;5059423;28;20293;-88
2022/02/25 05:30:03;;;;;;;12.43;7.40;;;;;;;1.47;75.00;95128.22;5059311;28;20205;-88
2022/02/25 05:32:30;;;;;;;9.48;6.10;;;;;;;1.48;75.27;95125.56;5060242;28;20213;-89
2022/02/25 05:34:57;;;;;;;10.13;6.30;;;;;;;1.75;75.00;95138.13;5061171;28;20207;-88
2022/02/25 05:37:24;;;;;;;9.77;7.50;;;;;;;2.63;75.07;95145.97;5060868;28;20202;-87
2022/02/25 05:43:28;;;;;;;31.37;16.80;;;;;;;4.97;64.54;95145.28;5061221;28;20914;-88
2022/02/25 05:45:56;;;;;;;29.57;18.23;;;;;;;5.65;60.73;95149.88;5062454;28;20457;-88
2022/02/25 05:48:23;;;;;;;41.20;21.30;;;;;;;6.36;58.92;95144.53;5064989;28;20478;-88
2022/02/25 05:50:51;;;;;;;30.33;19.17;;;;;;;7.27;56.83;95143.72;5064871;28;20497;-88
2022/02/25 05:53:18;;;;;;;32.13;18.47;;;;;;;8.05;54.91;95146.94;5060258;28;20540;-88
2022/02/25 05:55:45;;;;;;;22.23;15.63;;;;;;;8.81;51.95;95142.41;5058529;28;20970;-89
2022/02/25 05:58:12;;;;;;;28.40;15.80;;;;;;;9.49;49.80;95133.75;5058370;28;20457;-88
2022/02/25 06:00:39;;;;;;;22.97;15.20;;;;;;;10.03;47.84;95141.72;5057836;28;20454;-88
2022/02/25 06:03:08;;;;;;;36.90;21.13;;;;;;;9.85;47.25;95146.66;5057882;28;20445;-88
2022/02/25 06:05:35;;;;;;;20.27;13.30;;;;;;;9.72;47.38;95137.22;5058095;28;20445;-88
2022/02/25 06:08:02;;;;;;;9.00;7.43;;;;;;;9.55;47.85;95136.75;5057309;28;21140;-88
2022/02/25 06:10:29;;;;;;;15.87;7.40;;;;;;;9.51;48.17;95137.06;5057516;28;20479;-88
2022/02/25 06:12:56;;;;;;;9.20;6.87;;;;;;;9.48;47.59;95134.69;5057738;28;20445;-88
2022/02/25 06:15:23;;;;;;;10.57;5.80;;;;;;;9.65;47.46;95131.63;5057097;28;20453;-85
2022/02/25 06:17:51;;;;;;;15.50;6.73;;;;;;;9.96;46.76;95127.44;5058215;28;20532;-88
2022/02/25 06:20:21;;;;;;;12.83;6.40;;;;;;;10.21;46.60;95131.63;5058213;28;20924;-87
2022/02/25 06:22:49;;;;;;;11.00;6.23;;;;;;;10.11;46.14;95128.84;5057875;28;20515;-87
2022/02/25 06:25:17;;;;;;;17.43;6.60;;;;;;;9.86;46.25;95131.75;5057141;28;20529;-87
2022/02/25 06:28:03;;;;;;;16.30;9.40;;;;;;;9.60;47.35;95134.59;5058088;28;20990;-85
2022/02/25 06:30:30;;;;;;;18.00;9.80;;;;;;;9.10;47.64;95130.59;5077162;28;20433;-89
2022/02/25 06:32:58;;;;;;;30.20;15.40;;;;;;;8.80;50.41;95127.66;5079269;28;20459;-92
2022/02/25 06:35:28;;;;;;;45.40;26.70;;;;;;;8.22;52.52;95127.47;5078536;28;20449;-89
2022/02/25 06:37:55;;;;;;;32.60;22.00;;;;;;;8.14;54.33;95137.63;5078534;28;20449;-88
2022/02/25 06:40:22;;;;;;;29.87;21.70;;;;;;;8.02;54.61;95138.50;5078104;28;20457;-89
2022/02/25 06:42:49;;;;;;;39.77;25.90;;;;;;;7.45;55.70;95142.44;5078382;28;20460;-89
2022/02/25 06:45:17;;;;;;;35.53;20.20;;;;;;;7.37;55.50;95136.91;5078277;28;20463;-88
2022/02/25 06:47:45;;;;;;;30.87;20.97;;;;;;;7.31;55.91;95141.72;5078529;28;20843;-91
2022/02/25 06:50:12;;;;;;;23.27;17.40;;;;;;;7.27;56.22;95141.09;5077561;28;20455;-89
2022/02/25 06:52:41;;;;;;;26.50;17.53;;;;;;;7.31;56.41;95147.78;5076651;28;20461;-88
2022/02/25 06:55:09;;;;;;;28.10;19.27;;;;;;;7.17;56.51;95142.63;5078094;28;20449;-90
2022/02/25 06:57:36;;;;;;;26.13;19.33;;;;;;;7.18;57.32;95138.25;5079454;28;20934;-86
2022/02/25 07:00:04;;;;;;;26.90;17.70;;;;;;;7.32;57.04;95127.72;5077367;28;20965;-91
2022/02/25 07:02:31;;;;;;;31.83;18.13;;;;;;;7.33;58.63;95132.00;5079347;28;20463;-93
2022/02/25 07:04:57;;;;;;;31.07;18.93;;;;;;;7.25;59.22;95132.53;5079232;28;20473;-88
2022/02/25 07:07:25;;;;;;;31.17;17.70;;;;;;;7.09;57.65;95135.34;5078784;28;20972;-90
2022/02/25 07:09:53;;;;;;;30.00;18.10;;;;;;;6.99;58.80;95136.06;5077851;28;20463;-86
2022/02/25 07:12:21;;;;;;;28.60;19.87;;;;;;;7.04;59.08;95140.03;5078978;28;20463;-91
2022/02/25 07:14:48;;;;;;;28.83;18.40;;;;;;;7.09;59.24;95132.72;5079514;28;20465;-89
2022/02/25 07:17:15;;;;;;;28.67;19.93;;;;;;;7.09;59.44;95143.16;5078164;28;20548;-88
2022/02/25 07:19:42;;;;;;;33.50;22.10;;;;;;;7.28;58.68;95145.38;5077146;28;20537;-86
2022/02/25 07:22:09;;;;;;;28.27;20.03;;;;;;;7.39;58.06;95142.03;5078186;28;20489;-93
2022/02/25 07:24:36;;;;;;;33.87;21.27;;;;;;;7.40;58.10;95136.69;5079847;28;20919;-91
2022/02/25 07:27:05;;;;;;;30.90;21.40;;;;;;;7.14;58.61;95135.03;5078754;28;20451;-90
2022/02/25 07:29:32;;;;;;;39.17;23.90;;;;;;;6.99;58.63;95154.31;5074931;28;20579;-87
2022/02/25 07:31:59;;;;;;;38.17;22.63;;;;;;;6.83;58.27;95144.88;5075907;28;20449;-87
2022/02/25 07:34:27;;;;;;;30.77;18.63;;;;;;;6.53;58.55;95144.28;5076395;28;21010;-82
2022/02/25 07:36:54;;;;;;;33.20;20.93;;;;;;;6.12;63.02;95149.56;5075748;28;20511;-86
2022/02/25 07:39:21;;;;;;;30.23;19.90;;;;;;;5.83;63.54;95135.72;5075512;28;20456;-84
2022/02/25 07:41:48;;;;;;;29.43;19.80;;;;;;;5.60;64.49;95144.94;5056152;28;20433;-85
2022/02/25 07:44:17;;;;;;;26.73;19.20;;;;;;;5.47;64.36;95151.81;5075705;28;20536;-84
2022/02/25 07:46:45;;;;;;;27.03;19.80;;;;;;;5.54;65.76;95147.94;5075216;28;20463;-85
2022/02/25 07:49:12;;;;;;;30.33;19.47;;;;;;;5.46;65.15;95145.78;5075754;28;20484;-87
2022/02/25 07:51:39;;;;;;;30.03;19.30;;;;;;;5.50;66.54;95139.47;5075271;28;20524;-87
2022/02/25 07:54:06;;;;;;;27.00;18.33;;;;;;;5.45;66.15;95135.47;5075209;28;20453;-87
2022/02/25 07:56:33;;;;;;;26.90;18.93;;;;;;;5.20;67.42;95138.69;5074979;28;20456;-87
2022/02/25 07:59:00;;;;;;;33.00;18.93;;;;;;;5.41;67.39;95137.41;5075294;28;20455;-86
2022/02/25 08:01:28;;;;;;;25.13;18.80;;;;;;;5.65;66.93;95142.06;5075106;28;20470;-87
2022/02/25 08:03:55;;;;;;;33.50;18.70;;;;;;;5.88;65.57;95144.09;5075476;28;20441;-81
2022/02/25 08:06:22;;;;;;;32.03;21.57;;;;;;;5.94;65.23;95143.72;5075569;28;20412;-89
2022/02/25 08:08:49;;;;;;;43.27;21.03;;;;;;;6.12;64.85;95142.59;5073996;28;20472;-89
2022/02/25 08:11:17;;;;;;;29.10;20.27;;;;;;;6.37;63.94;95128.00;5075310;28;20481;-88
2022/02/25 08:13:44;;;;;;;43.37;23.50;;;;;;;6.36;63.83;95115.88;5075317;28;20444;-88
2022/02/25 08:16:11;;;;;;;42.17;22.83;;;;;;;6.42;63.96;95126.75;5075799;28;20473;-89
2022/02/25 08:18:40;;;;;;;46.10;24.00;;;;;;;6.30;63.06;95119.72;5075116;28;20856;-82
2022/02/25 08:21:07;;;;;;;43.40;24.93;;;;;;;6.51;64.42;95107.06;5074017;28;20438;-84
2022/02/25 08:23:34;;;;;;;37.90;23.90;;;;;;;6.86;64.12;95114.31;5074379;28;20540;-84
2022/02/25 08:36:09;;;;;;;24.87;17.30;;;;;;;7.55;59.06;95113.09;5094076;28;20395;-83
2022/02/25 08:38:36;;;;;;;28.10;20.70;;;;;;;7.67;63.50;95110.47;5094309;28;20463;-87
2022/02/25 08:41:04;;;;;;;24.87;19.30;;;;;;;7.52;60.13;95113.28;5094300;28;20486;-84
2022/02/25 08:43:32;;;;;;;22.00;17.17;;;;;;;7.51;58.15;95109.00;5094615;28;20932;-86
2022/02/25 08:46:00;;;;;;;27.37;19.97;;;;;;;7.55;58.76;95113.09;5094308;28;20448;-85
2022/02/25 08:48:27;;;;;;;26.73;19.63;;;;;;;7.73;58.92;95110.03;5097330;28;20549;-86
2022/02/25 08:50:55;;;;;;;25.87;20.13;;;;;;;7.91;59.16;95109.69;5095468;28;20997;-87
2022/02/25 08:53:24;;;;;;;30.07;20.83;;;;;;;8.05;57.91;95097.28;5094692;28;20451;-86
2022/02/25 08:55:51;;;;;;;32.70;19.40;;;;;;;8.22;58.51;95100.47;5094626;28;20865;-85
2022/02/25 09:01:40;;;;;;;22.27;14.30;;;;;;;8.34;53.75;95083.94;5093066;28;20447;-83
2022/02/25 09:04:08;;;;;;;24.13;16.00;;;;;;;8.56;54.47;95080.59;5094056;28;20429;-84
2022/02/25 09:06:36;;;;;;;24.57;15.43;;;;;;;8.61;53.82;95078.44;5079997;28;20931;-82
2022/02/25 09:09:05;;;;;;;28.93;15.37;;;;;;;8.59;54.69;95060.25;5073456;28;20567;-83
2022/02/25 09:11:32;;;;;;;23.10;13.90;;;;;;;8.57;54.93;95072.63;5073866;28;20464;-83
2022/02/25 09:13:59;;;;;;;20.60;13.90;;;;;;;8.51;55.00;95067.00;5073210;28;20922;-83
2022/02/25 09:16:27;;;;;;;19.80;12.83;;;;;;;8.48;54.67;95043.72;5073172;28;20468;-82
2022/02/25 09:18:55;;;;;;;17.83;12.00;;;;;;;8.52;52.23;95053.81;5073403;28;20437;-83
2022/02/25 09:21:22;;;;;;;17.03;9.77;;;;;;;8.44;51.44;95055.34;5073541;28;20439;-83
2022/02/25 09:23:50;;;;;;;21.40;11.17;;;;;;;8.55;53.06;95052.75;5073503;28;20958;-83
2022/02/25 09:26:19;;;;;;;16.57;8.60;;;;;;;8.66;52.40;95053.63;5073471;28;20955;-83
2022/02/25 09:28:46;;;;;;;9.60;8.03;;;;;;;8.31;50.60;95045.75;5073429;28;20472;-84
2022/02/25 09:31:13;;;;;;;7.57;5.17;;;;;;;8.17;48.40;95042.47;5073134;28;20449;-84
2022/02/25 09:33:40;;;;;;;8.63;6.40;;;;;;;8.15;49.35;95039.97;5073385;28;20465;-84
2022/02/25 09:36:08;;;;;;;13.77;9.23;;;;;;;8.37;50.65;95049.72;5073418;28;20926;-84
2022/02/25 09:41:59;;;;;;;9.37;7.23;;;;;;;8.62;50.95;95038.28;5072509;28;20830;-85
2022/02/25 09:44:27;;;;;;;5.83;4.60;;;;;;;8.70;48.07;95030.72;5073180;28;20478;-84
2022/02/25 09:46:54;;;;;;;9.00;5.60;;;;;;;8.77;47.75;95031.06;5038059;28;20441;-83
2022/02/25 09:49:21;;;;;;;7.83;5.10;;;;;;;8.54;48.62;95019.72;5073368;28;20501;-89
2022/02/25 09:51:49;;;;;;;14.77;6.50;;;;;;;8.62;50.01;95007.72;5073531;28;20940;-91
2022/02/25 09:54:18;;;;;;;6.70;6.00;;;;;;;8.81;49.76;95001.94;5071566;28;20467;-91
2022/02/25 09:56:46;;;;;;;7.93;5.37;;;;;;;9.08;48.91;94995.53;5073045;28;20460;-90
2022/02/25 09:59:15;;;;;;;10.03;7.63;;;;;;;9.04;48.83;94994.94;5072853;28;20547;-85
2022/02/25 10:01:42;;;;;;;7.70;6.47;;;;;;;9.11;48.43;94990.06;5072936;28;20461;-88
2022/02/25 10:04:15;;;;;;;7.30;5.00;;;;;;;8.95;47.70;94987.78;5073661;28;20531;-89
2022/02/25 10:06:43;;;;;;;10.87;6.87;;;;;;;9.04;48.57;94997.56;5077438;28;20432;-91
2022/02/25 10:09:26;;;;;;;9.63;6.10;;;;;;;8.91;47.94;94986.34;5077181;28;20576;-95
2022/02/25 10:12:06;;;;;;;14.53;8.50;;;;;;;8.98;48.77;94982.34;5078193;28;20476;-93
2022/02/25 10:14:37;;;;;;;12.07;6.80;;;;;;;8.95;48.84;94983.38;5078471;28;20539;-90
2022/02/25 10:17:06;;;;;;;7.93;7.07;;;;;;;8.89;48.42;94977.78;5078059;28;20459;-92
2022/02/25 10:19:33;;;;;;;10.40;6.90;;;;;;;8.80;48.43;94971.50;5078367;28;20451;-90
2022/02/25 10:22:14;;;;;;;7.77;5.80;;;;;;;8.68;46.44;94975.06;5077619;28;20965;-89
2022/02/25 10:24:46;;;;;;;10.67;6.47;;;;;;;8.54;47.03;94973.47;5077587;28;20459;-89
2022/02/25 10:27:25;;;;;;;8.60;6.17;;;;;;;8.52;48.75;94971.91;5077937;28;20440;-86
2022/02/25 10:30:04;;;;;;;7.27;5.93;;;;;;;8.56;47.68;94961.09;5077364;28;20478;-85
2022/02/25 10:36:02;;;;;;;11.13;5.10;;;;;;;9.06;47.90;94952.94;5077090;28;20442;-84
2022/02/25 10:38:29;;;;;;;6.67;5.57;;;;;;;9.08;46.30;94957.09;5076061;28;20803;-87
2022/02/25 10:40:56;;;;;;;10.17;5.07;;;;;;;9.02;47.41;94952.38;5076901;28;20459;-82
2022/02/25 10:43:28;;;;;;;7.07;5.10;;;;;;;9.17;43.29;94953.75;5076625;28;20445;-88
2022/02/25 10:46:03;;;;;;;6.03;4.97;;;;;;;9.28;43.57;94956.41;5077396;28;20429;-91
2022/02/25 10:48:33;;;;;;;9.10;4.70;;;;;;;9.20;41.30;94952.69;5076808;28;20441;-91
2022/02/25 10:51:02;;;;;;;7.20;4.70;;;;;;;9.10;40.90;94946.53;5073000;28;20511;-87
2022/02/25 10:53:31;;;;;;;7.80;5.10;;;;;;;9.16;42.40;94951.28;5070587;28;20475;-85
2022/02/25 10:56:06;;;;;;;6.80;5.30;;;;;;;9.22;43.48;94938.53;5075331;28;20459;-83
2022/02/25 10:58:39;;;;;;;9.63;6.00;;;;;;;9.22;42.21;94927.22;5054257;28;20441;-83
2022/02/25 11:01:07;;;;;;;11.80;5.80;;;;;;;9.31;42.35;94932.59;5055366;28;20446;-84
2022/02/25 11:03:34;;;;;;;13.73;7.70;;;;;;;9.42;43.80;94933.50;5055108;28;20444;-85
2022/02/25 11:06:01;;;;;;;10.60;6.83;;;;;;;9.36;41.93;94924.34;5056518;28;20458;-84
2022/02/25 11:08:28;;;;;;;16.67;8.73;;;;;;;9.34;42.59;94920.19;5062123;28;20464;-82
2022/02/25 11:10:56;;;;;;;10.63;6.83;;;;;;;9.49;42.65;94913.72;5075145;28;21009;-85
2022/02/25 11:13:23;;;;;;;13.37;8.60;;;;;;;9.56;42.15;94917.53;5075427;28;20433;-86
2022/02/25 11:15:51;;;;;;;8.90;6.90;;;;;;;9.54;40.77;94911.56;5075776;28;20463;-87
2022/02/25 11:18:20;;;;;;;12.50;8.27;;;;;;;9.65;41.58;94911.56;5075800;28;20459;-86
2022/02/25 11:20:50;;;;;;;13.30;7.40;;;;;;;9.67;40.73;94901.78;5075419;28;20437;-85
2022/02/25 11:23:18;;;;;;;12.10;6.87;;;;;;;9.76;42.37;94903.63;5075512;28;20428;-87
2022/02/25 11:25:46;;;;;;;17.47;9.27;;;;;;;9.78;40.98;94888.63;5075150;28;20460;-89
2022/02/25 11:28:14;;;;;;;14.13;9.17;;;;;;;9.81;40.64;94888.38;5075782;28;20447;-87
2022/02/25 11:30:47;;;;;;;13.00;9.10;;;;;;;9.99;42.12;94877.34;5075807;28;20579;-88
2022/02/25 11:33:16;;;;;;;10.60;8.50;;;;;;;10.14;41.29;94879.53;5075762;28;20467;-87
2022/02/25 11:35:51;;;;;;;16.37;9.60;;;;;;;10.17;39.86;94867.97;5075312;28;20453;-85
2022/02/25 11:38:27;;;;;;;12.40;8.97;;;;;;;10.06;40.40;94873.25;5075337;28;20427;-82
2022/02/25 11:44:16;;;;;;;15.10;9.00;;;;;;;10.21;39.17;94866.78;5073508;28;20470;-83
2022/02/25 11:46:44;;;;;;;22.30;9.03;;;;;;;10.11;39.55;94855.34;5073542;28;20927;-84
2022/02/25 11:49:23;;;;;;;11.90;9.73;;;;;;;10.06;40.30;94849.66;5069931;28;20525;-84
2022/02/25 11:52:00;;;;;;;13.33;9.53;;;;;;;10.20;39.30;94844.09;5073369;28;20795;-84
2022/02/25 11:54:40;;;;;;;22.53;9.50;;;;;;;10.32;38.64;94843.09;5073688;28;20453;-84
2022/02/25 11:57:28;;;;;;;14.73;9.53;;;;;;;10.30;40.07;94844.19;5073671;28;20449;-83
2022/02/25 12:00:18;;;;;;;16.03;10.67;;;;;;;10.38;39.44;94845.19;5073228;28;21027;-83
2022/02/25 12:03:16;;;;;;;13.37;8.73;;;;;;;10.40;39.48;94839.81;5073657;28;20463;-83
2022/02/25 12:05:45;;;;;;;16.00;9.50;;;;;;;10.52;40.74;94831.75;5072951;28;20510;-83
2022/02/25 12:08:30;;;;;;;13.20;8.37;;;;;;;10.54;38.69;94828.97;5073192;28;20445;-82
2022/02/25 12:11:02;;;;;;;13.67;8.60;;;;;;;10.64;37.91;94829.00;5073095;28;20545;-84
2022/02/25 12:13:30;;;;;;;24.90;8.83;;;;;;;10.68;37.14;94828.63;5073113;28;20441;-84